Tour Pomerol — 9HA2543 — position and weather

sailwx.info

Track history (hours):
 
Tides and Currents Weather Stations Pressure Air Temp Water Temp Dewpoint Dewpoint Depression Visibility Wind Speed Wind Dir Waves Ship Positions

Tour Pomerol

Last reported at 2018-Jun-24 13:56 UTC. Time now 2018-Jun-25 11:32 UTC.
Position N 37°09' W 001°10'.

Length 120 m; draft 8.5 m.

Type: Ship (hazmat cat B). MMSI: 248842000.

Date/timePositionNaut miles runAvg speedWind from/ knotsBaromVisibWave heightAir tempDewpointWater temp
2018-Jun-24 13:56N 37°09' W 001°10'812.6
2018-Jun-24 13:19N 37°14' W 001°02'412.5
2018-Jun-24 13:00N 37°17' W 000°59'812.9
2018-Jun-24 12:21N 37°22' W 000°51'614.1
2018-Jun-24 11:55N 37°26' W 000°45'613.3
2018-Jun-24 11:28N 37°30' W 000°39'612.6
2018-Jun-24 10:59N 37°34' W 000°34'613.0
2018-Jun-24 10:29N 37°40' W 000°29'813.3
2018-Jun-24 09:53N 37°46' W 000°24'913.5
2018-Jun-24 09:15N 37°54' W 000°18'313.3
2018-Jun-24 08:59N 37°57' W 000°16'713.3
2018-Jun-24 08:28N 38°02' W 000°11'613.4
2018-Jun-24 08:00N 38°07' W 000°06'813.4
2018-Jun-24 07:23N 38°14' W 000°00'513.4
2018-Jun-24 07:00N 38°19' E 000°03'713.4
2018-Jun-24 06:30N 38°24' E 000°08'18913.3
2018-Jun-23 16:14N 40°56' E 002°35'312.9
2018-Jun-23 16:00N 40°58' E 002°37'713.0
2018-Jun-23 15:30N 41°03' E 002°42'1613.0
2018-Jun-23 14:18N 41°16' E 002°55'413.0
2018-Jun-23 14:00N 41°19' E 002°58'712.9
2018-Jun-23 13:27N 41°24' E 003°04'12713.8
2018-Jun-23 04:15N 43°03' E 004°51'313.9
2018-Jun-23 04:00N 43°06' E 004°54'713.8
2018-Jun-23 03:30N 43°11' E 005°00'713.3
2018-Jun-23 03:00N 43°18' E 004°59'611.2
2018-Jun-23 02:30N 43°23' E 004°59'1 2.0
2018-Jun-23 02:00N 43°24' E 004°60'0 0.0
2018-Jun-23 01:24N 43°24' E 004°60'0 0.0
2018-Jun-23 00:57N 43°24' E 004°60'0 0.0
2018-Jun-23 00:27N 43°24' E 004°60'0 0.0
2018-Jun-23 00:00N 43°24' E 004°60'0 0.0
2018-Jun-22 23:27N 43°24' E 004°60'0 0.0
2018-Jun-22 23:00N 43°24' E 004°60'0 0.0
2018-Jun-22 22:30N 43°24' E 004°60'0 0.5
2018-Jun-22 22:00N 43°24' E 004°60'3 6.7
2018-Jun-22 21:30N 43°24' E 004°55'4 8.2
2018-Jun-22 21:00N 43°26' E 004°50'0 0.0
2018-Jun-21 17:56N 43°26' E 004°50'1 1.9
2018-Jun-21 17:28N 43°25' E 004°51'4 8.9
2018-Jun-21 17:00N 43°24' E 004°56'0 0.3
2018-Jun-21 16:31N 43°25' E 004°56'0 0.1
2018-Jun-21 16:01N 43°24' E 004°57'0 0.0
2018-Jun-21 15:30N 43°24' E 004°57'0 0.1
2018-Jun-21 15:01N 43°24' E 004°57'0 0.0
2018-Jun-21 14:31N 43°24' E 004°57'0 0.0
2018-Jun-21 14:00N 43°24' E 004°57'0 0.0
2018-Jun-21 13:21N 43°24' E 004°57'0 0.1
2018-Jun-21 13:00N 43°24' E 004°57'3 6.2
2018-Jun-21 12:30N 43°22' E 004°58'611.1
2018-Jun-21 12:00N 43°16' E 005°01'714.1
2018-Jun-21 11:30N 43°10' E 005°03'714.3
2018-Jun-21 11:00N 43°02' E 005°03'714.3
2018-Jun-21 10:30N 42°55' E 005°03'714.7
2018-Jun-21 10:00N 42°48' E 005°03'815.1
2018-Jun-21 09:31N 42°40' E 005°03'  
Track history (hours):
 
Tides and Currents Weather Stations Pressure Air Temp Water Temp Dewpoint Dewpoint Depression Visibility Wind Speed Wind Dir Waves Ship Positions

Tour Pomerol

Last reported at 2018-Jun-24 13:56 UTC. Time now 2018-Jun-25 11:32 UTC.
Position N 37°09' W 001°10'.

Length 120 m; draft 8.5 m.

Type: Ship (hazmat cat B). MMSI: 248842000.

Date/timePositionNaut miles runAvg speedWind from/ knotsBaromVisibWave heightAir tempDewpointWater temp
2018-Jun-24 13:56N 37°09' W 001°10'812.6
2018-Jun-24 13:19N 37°14' W 001°02'412.5
2018-Jun-24 13:00N 37°17' W 000°59'812.9
2018-Jun-24 12:21N 37°22' W 000°51'614.1
2018-Jun-24 11:55N 37°26' W 000°45'613.3
2018-Jun-24 11:28N 37°30' W 000°39'612.6
2018-Jun-24 10:59N 37°34' W 000°34'613.0
2018-Jun-24 10:29N 37°40' W 000°29'813.3
2018-Jun-24 09:53N 37°46' W 000°24'913.5
2018-Jun-24 09:15N 37°54' W 000°18'313.3
2018-Jun-24 08:59N 37°57' W 000°16'713.3
2018-Jun-24 08:28N 38°02' W 000°11'613.4
2018-Jun-24 08:00N 38°07' W 000°06'813.4
2018-Jun-24 07:23N 38°14' W 000°00'513.4
2018-Jun-24 07:00N 38°19' E 000°03'713.4
2018-Jun-24 06:30N 38°24' E 000°08'18913.3
2018-Jun-23 16:14N 40°56' E 002°35'312.9
2018-Jun-23 16:00N 40°58' E 002°37'713.0
2018-Jun-23 15:30N 41°03' E 002°42'1613.0
2018-Jun-23 14:18N 41°16' E 002°55'413.0
2018-Jun-23 14:00N 41°19' E 002°58'712.9
2018-Jun-23 13:27N 41°24' E 003°04'12713.8
2018-Jun-23 04:15N 43°03' E 004°51'313.9
2018-Jun-23 04:00N 43°06' E 004°54'713.8
2018-Jun-23 03:30N 43°11' E 005°00'713.3
2018-Jun-23 03:00N 43°18' E 004°59'611.2
2018-Jun-23 02:30N 43°23' E 004°59'1 2.0
2018-Jun-23 02:00N 43°24' E 004°60'0 0.0
2018-Jun-23 01:24N 43°24' E 004°60'0 0.0
2018-Jun-23 00:57N 43°24' E 004°60'0 0.0
2018-Jun-23 00:27N 43°24' E 004°60'0 0.0
2018-Jun-23 00:00N 43°24' E 004°60'0 0.0
2018-Jun-22 23:27N 43°24' E 004°60'0 0.0
2018-Jun-22 23:00N 43°24' E 004°60'0 0.0
2018-Jun-22 22:30N 43°24' E 004°60'0 0.5
2018-Jun-22 22:00N 43°24' E 004°60'3 6.7
2018-Jun-22 21:30N 43°24' E 004°55'4 8.2
2018-Jun-22 21:00N 43°26' E 004°50'0 0.0
2018-Jun-21 17:56N 43°26' E 004°50'1 1.9
2018-Jun-21 17:28N 43°25' E 004°51'4 8.9
2018-Jun-21 17:00N 43°24' E 004°56'0 0.3
2018-Jun-21 16:31N 43°25' E 004°56'0 0.1
2018-Jun-21 16:01N 43°24' E 004°57'0 0.0
2018-Jun-21 15:30N 43°24' E 004°57'0 0.1
2018-Jun-21 15:01N 43°24' E 004°57'0 0.0
2018-Jun-21 14:31N 43°24' E 004°57'0 0.0
2018-Jun-21 14:00N 43°24' E 004°57'0 0.0
2018-Jun-21 13:21N 43°24' E 004°57'0 0.1
2018-Jun-21 13:00N 43°24' E 004°57'3 6.2
2018-Jun-21 12:30N 43°22' E 004°58'611.1
2018-Jun-21 12:00N 43°16' E 005°01'714.1
2018-Jun-21 11:30N 43°10' E 005°03'714.3
2018-Jun-21 11:00N 43°02' E 005°03'714.3
2018-Jun-21 10:30N 42°55' E 005°03'714.7
2018-Jun-21 10:00N 42°48' E 005°03'815.1
2018-Jun-21 09:31N 42°40' E 005°03'  

Dump ship's entire track history